Cary, Kentucky
Current Conditions -  °F | °C
As of 9:15 AM on Monday 20 Oct 2014 (Local Time) from K1A6 Reporting Station
Scattered Clouds Scattered Clouds  
Wind Chill: 42°   Ceiling: Unl
Heat Index: 42°   Visibility: 10mi
Dew Point: 41°   Wind: 0mph
Humidity: 99%   Direction: NA
Pressure: 30.13"   Gusts: NA
Location:  36.7417°N, 83.6911°W
Report Text: K1A6 201315Z AUTO 00000KT 10SM SCT003 05/05 A3013 RMK AO2 T00530051
Loading
Personal Weather Stations






























Interactive Weather Map
Tropical Storm Tracking
New forecast layout! Learn more

10-Day Weather Forecast

Advertisements
Track Severe Weather on mobile